sensor_id;sensor_type;location;lat;lon;timestamp;temperature;humidity
6841;DHT22;3458;53.678;14.080;2023-02-28T00:00:51;0.00;99.90
6841;DHT22;3458;53.678;14.080;2023-02-28T00:03:17;0.00;99.90
6841;DHT22;3458;53.678;14.080;2023-02-28T00:05:42;0.00;99.90
6841;DHT22;3458;53.678;14.080;2023-02-28T00:08:08;0.00;99.90
6841;DHT22;3458;53.678;14.080;2023-02-28T00:10:34;-0.10;99.90
6841;DHT22;3458;53.678;14.080;2023-02-28T00:13:05;-0.10;99.90
6841;DHT22;3458;53.678;14.080;2023-02-28T00:15:32;-0.10;99.90
6841;DHT22;3458;53.678;14.080;2023-02-28T00:17:57;-0.10;99.90
6841;DHT22;3458;53.678;14.080;2023-02-28T00:20:24;-0.20;99.90
6841;DHT22;3458;53.678;14.080;2023-02-28T00:22:51;-0.20;99.90
6841;DHT22;3458;53.678;14.080;2023-02-28T00:25:19;-0.20;99.90
6841;DHT22;3458;53.678;14.080;2023-02-28T00:27:45;-0.20;99.90
6841;DHT22;3458;53.678;14.080;2023-02-28T00:30:14;-0.20;99.90
6841;DHT22;3458;53.678;14.080;2023-02-28T00:32:40;-0.20;99.90
6841;DHT22;3458;53.678;14.080;2023-02-28T00:35:06;-0.30;99.90
6841;DHT22;3458;53.678;14.080;2023-02-28T00:37:32;-0.30;99.90
6841;DHT22;3458;53.678;14.080;2023-02-28T00:39:57;-0.30;99.90
6841;DHT22;3458;53.678;14.080;2023-02-28T00:42:24;-0.30;99.90
6841;DHT22;3458;53.678;14.080;2023-02-28T00:44:49;-0.30;99.90
6841;DHT22;3458;53.678;14.080;2023-02-28T00:47:15;-0.30;99.90
6841;DHT22;3458;53.678;14.080;2023-02-28T00:49:41;-0.40;99.90
6841;DHT22;3458;53.678;14.080;2023-02-28T00:52:06;-0.40;99.90
6841;DHT22;3458;53.678;14.080;2023-02-28T00:54:32;-0.40;99.90
6841;DHT22;3458;53.678;14.080;2023-02-28T00:56:57;-0.50;99.90
6841;DHT22;3458;53.678;14.080;2023-02-28T00:59:23;-0.50;99.90
6841;DHT22;3458;53.678;14.080;2023-02-28T01:01:49;-0.40;99.90
6841;DHT22;3458;53.678;14.080;2023-02-28T01:04:15;-0.40;99.90
6841;DHT22;3458;53.678;14.080;2023-02-28T01:06:41;-0.50;99.90
6841;DHT22;3458;53.678;14.080;2023-02-28T01:09:07;-0.50;99.90
6841;DHT22;3458;53.678;14.080;2023-02-28T01:11:33;-0.50;99.90
6841;DHT22;3458;53.678;14.080;2023-02-28T01:14:00;-0.60;99.90
6841;DHT22;3458;53.678;14.080;2023-02-28T01:16:26;-0.60;99.90
6841;DHT22;3458;53.678;14.080;2023-02-28T01:18:51;-0.60;99.90
6841;DHT22;3458;53.678;14.080;2023-02-28T01:21:19;-0.60;99.90
6841;DHT22;3458;53.678;14.080;2023-02-28T01:23:45;-0.60;99.90
6841;DHT22;3458;53.678;14.080;2023-02-28T01:26:14;-0.60;99.90
6841;DHT22;3458;53.678;14.080;2023-02-28T01:28:40;-0.70;99.90
6841;DHT22;3458;53.678;14.080;2023-02-28T01:31:06;-0.70;99.90
6841;DHT22;3458;53.678;14.080;2023-02-28T01:33:32;-0.70;99.90
6841;DHT22;3458;53.678;14.080;2023-02-28T01:36:05;-0.80;99.90
6841;DHT22;3458;53.678;14.080;2023-02-28T01:38:32;-0.80;99.90
6841;DHT22;3458;53.678;14.080;2023-02-28T01:40:57;-0.80;99.90
6841;DHT22;3458;53.678;14.080;2023-02-28T01:43:35;-0.80;99.90
6841;DHT22;3458;53.678;14.080;2023-02-28T01:46:16;-0.80;99.90
6841;DHT22;3458;53.678;14.080;2023-02-28T01:48:54;-0.90;99.90
6841;DHT22;3458;53.678;14.080;2023-02-28T01:51:49;-0.90;99.90
6841;DHT22;3458;53.678;14.080;2023-02-28T01:54:20;-0.90;99.90
6841;DHT22;3458;53.678;14.080;2023-02-28T01:56:51;-0.90;99.90
6841;DHT22;3458;53.678;14.080;2023-02-28T01:59:31;-0.90;99.90
6841;DHT22;3458;53.678;14.080;2023-02-28T02:01:58;-0.90;99.90
6841;DHT22;3458;53.678;14.080;2023-02-28T02:04:27;-1.00;99.90
6841;DHT22;3458;53.678;14.080;2023-02-28T02:06:58;-0.90;99.90
6841;DHT22;3458;53.678;14.080;2023-02-28T02:09:24;-1.00;99.90
6841;DHT22;3458;53.678;14.080;2023-02-28T02:11:49;-0.90;99.90
6841;DHT22;3458;53.678;14.080;2023-02-28T02:17:38;-1.00;99.90
6841;DHT22;3458;53.678;14.080;2023-02-28T02:20:32;-1.00;99.90
6841;DHT22;3458;53.678;14.080;2023-02-28T02:29:15;-1.10;99.90
6841;DHT22;3458;53.678;14.080;2023-02-28T02:37:20;-1.20;99.90
6841;DHT22;3458;53.678;14.080;2023-02-28T02:40:03;-1.10;99.90
6841;DHT22;3458;53.678;14.080;2023-02-28T02:42:44;-1.10;99.90
6841;DHT22;3458;53.678;14.080;2023-02-28T02:45:34;-1.10;99.90
6841;DHT22;3458;53.678;14.080;2023-02-28T02:48:08;-1.10;99.90
6841;DHT22;3458;53.678;14.080;2023-02-28T02:50:39;-1.20;99.90
6841;DHT22;3458;53.678;14.080;2023-02-28T02:53:08;-1.20;99.90
6841;DHT22;3458;53.678;14.080;2023-02-28T02:55:38;-1.20;99.90
6841;DHT22;3458;53.678;14.080;2023-02-28T02:58:08;-1.30;99.90
6841;DHT22;3458;53.678;14.080;2023-02-28T03:00:42;-1.30;99.90
6841;DHT22;3458;53.678;14.080;2023-02-28T03:03:10;-1.30;99.90
6841;DHT22;3458;53.678;14.080;2023-02-28T03:05:45;-1.30;99.90
6841;DHT22;3458;53.678;14.080;2023-02-28T03:08:11;-1.30;99.90
6841;DHT22;3458;53.678;14.080;2023-02-28T03:10:42;-1.30;99.90
6841;DHT22;3458;53.678;14.080;2023-02-28T03:21:29;-1.40;99.90
6841;DHT22;3458;53.678;14.080;2023-02-28T03:24:12;-1.40;99.90
6841;DHT22;3458;53.678;14.080;2023-02-28T03:26:46;-1.40;99.90
6841;DHT22;3458;53.678;14.080;2023-02-28T03:29:20;-1.40;99.90
6841;DHT22;3458;53.678;14.080;2023-02-28T03:31:58;-1.40;99.90
6841;DHT22;3458;53.678;14.080;2023-02-28T03:34:36;-1.40;99.90
6841;DHT22;3458;53.678;14.080;2023-02-28T03:37:07;-1.50;99.90
6841;DHT22;3458;53.678;14.080;2023-02-28T03:39:43;-1.50;99.90
6841;DHT22;3458;53.678;14.080;2023-02-28T03:42:13;-1.50;99.90
6841;DHT22;3458;53.678;14.080;2023-02-28T03:44:44;-1.60;99.90
6841;DHT22;3458;53.678;14.080;2023-02-28T03:47:24;-1.60;99.90
6841;DHT22;3458;53.678;14.080;2023-02-28T03:49:53;-1.60;99.90
6841;DHT22;3458;53.678;14.080;2023-02-28T03:52:22;-1.60;99.90
6841;DHT22;3458;53.678;14.080;2023-02-28T03:54:52;-1.70;99.90
6841;DHT22;3458;53.678;14.080;2023-02-28T03:57:32;-1.60;99.90
6841;DHT22;3458;53.678;14.080;2023-02-28T04:00:03;-1.60;99.90
6841;DHT22;3458;53.678;14.080;2023-02-28T04:02:32;-1.60;99.90
6841;DHT22;3458;53.678;14.080;2023-02-28T04:04:57;-1.70;99.90
6841;DHT22;3458;53.678;14.080;2023-02-28T04:07:23;-1.70;99.90
6841;DHT22;3458;53.678;14.080;2023-02-28T04:09:49;-1.70;99.90
6841;DHT22;3458;53.678;14.080;2023-02-28T04:12:14;-1.70;99.90
6841;DHT22;3458;53.678;14.080;2023-02-28T04:14:40;-1.70;99.90
6841;DHT22;3458;53.678;14.080;2023-02-28T04:17:05;-1.80;99.90
6841;DHT22;3458;53.678;14.080;2023-02-28T04:19:31;-1.80;99.90
6841;DHT22;3458;53.678;14.080;2023-02-28T04:21:56;-1.80;99.90
6841;DHT22;3458;53.678;14.080;2023-02-28T04:24:24;-1.70;99.90
6841;DHT22;3458;53.678;14.080;2023-02-28T04:26:52;-1.80;99.90
6841;DHT22;3458;53.678;14.080;2023-02-28T04:29:21;-1.80;99.90
6841;DHT22;3458;53.678;14.080;2023-02-28T04:31:47;-1.80;99.90
6841;DHT22;3458;53.678;14.080;2023-02-28T04:34:12;-1.90;99.90
6841;DHT22;3458;53.678;14.080;2023-02-28T04:36:38;-1.90;99.90
6841;DHT22;3458;53.678;14.080;2023-02-28T04:39:04;-1.90;99.90
6841;DHT22;3458;53.678;14.080;2023-02-28T04:41:29;-1.90;99.90
6841;DHT22;3458;53.678;14.080;2023-02-28T04:43:55;-1.90;99.90
6841;DHT22;3458;53.678;14.080;2023-02-28T04:46:21;-1.90;99.90
6841;DHT22;3458;53.678;14.080;2023-02-28T04:48:47;-2.00;99.90
6841;DHT22;3458;53.678;14.080;2023-02-28T04:51:14;-2.00;99.90
6841;DHT22;3458;53.678;14.080;2023-02-28T04:53:42;-2.00;99.90
6841;DHT22;3458;53.678;14.080;2023-02-28T04:56:09;-2.10;99.90
6841;DHT22;3458;53.678;14.080;2023-02-28T04:58:35;-2.00;99.90
6841;DHT22;3458;53.678;14.080;2023-02-28T05:01:02;-2.00;99.90
6841;DHT22;3458;53.678;14.080;2023-02-28T05:03:28;-2.10;99.90
6841;DHT22;3458;53.678;14.080;2023-02-28T05:05:54;-2.10;99.90
6841;DHT22;3458;53.678;14.080;2023-02-28T05:08:19;-2.10;99.90
6841;DHT22;3458;53.678;14.080;2023-02-28T05:10:44;-2.10;99.90
6841;DHT22;3458;53.678;14.080;2023-02-28T05:13:13;-2.10;99.90
6841;DHT22;3458;53.678;14.080;2023-02-28T05:15:39;-2.20;99.90
6841;DHT22;3458;53.678;14.080;2023-02-28T05:18:04;-2.20;99.90
6841;DHT22;3458;53.678;14.080;2023-02-28T05:20:30;-2.20;99.90
6841;DHT22;3458;53.678;14.080;2023-02-28T05:22:56;-2.20;99.90
6841;DHT22;3458;53.678;14.080;2023-02-28T05:25:22;-2.20;99.90
6841;DHT22;3458;53.678;14.080;2023-02-28T05:27:48;-2.20;99.90
6841;DHT22;3458;53.678;14.080;2023-02-28T05:30:14;-2.30;99.90
6841;DHT22;3458;53.678;14.080;2023-02-28T05:32:41;-2.30;99.90
6841;DHT22;3458;53.678;14.080;2023-02-28T05:35:10;-2.30;99.90
6841;DHT22;3458;53.678;14.080;2023-02-28T05:37:37;-2.30;99.90
6841;DHT22;3458;53.678;14.080;2023-02-28T05:40:03;-2.30;99.90
6841;DHT22;3458;53.678;14.080;2023-02-28T05:42:35;-2.40;99.90
6841;DHT22;3458;53.678;14.080;2023-02-28T05:45:01;-2.40;99.90
6841;DHT22;3458;53.678;14.080;2023-02-28T05:47:26;-2.40;99.90
6841;DHT22;3458;53.678;14.080;2023-02-28T05:49:52;-2.40;99.90
6841;DHT22;3458;53.678;14.080;2023-02-28T05:52:17;-2.30;99.90
6841;DHT22;3458;53.678;14.080;2023-02-28T05:54:43;-2.30;99.90
6841;DHT22;3458;53.678;14.080;2023-02-28T05:57:08;-2.30;99.90
6841;DHT22;3458;53.678;14.080;2023-02-28T05:59:34;-2.30;99.90
6841;DHT22;3458;53.678;14.080;2023-02-28T06:01:59;-2.30;99.90
6841;DHT22;3458;53.678;14.080;2023-02-28T06:04:25;-2.30;99.90
6841;DHT22;3458;53.678;14.080;2023-02-28T06:06:50;-2.30;99.90
6841;DHT22;3458;53.678;14.080;2023-02-28T06:09:17;-2.20;99.90
6841;DHT22;3458;53.678;14.080;2023-02-28T06:11:43;-2.20;99.90
6841;DHT22;3458;53.678;14.080;2023-02-28T06:14:15;-2.20;99.90
6841;DHT22;3458;53.678;14.080;2023-02-28T06:16:41;-2.20;99.90
6841;DHT22;3458;53.678;14.080;2023-02-28T06:19:07;-2.20;99.90
6841;DHT22;3458;53.678;14.080;2023-02-28T06:21:32;-2.20;99.90
6841;DHT22;3458;53.678;14.080;2023-02-28T06:23:58;-2.20;99.90
6841;DHT22;3458;53.678;14.080;2023-02-28T06:26:25;-2.20;99.90
6841;DHT22;3458;53.678;14.080;2023-02-28T06:28:51;-2.20;99.90
6841;DHT22;3458;53.678;14.080;2023-02-28T06:31:18;-2.20;99.90
6841;DHT22;3458;53.678;14.080;2023-02-28T06:33:44;-2.20;99.90
6841;DHT22;3458;53.678;14.080;2023-02-28T06:36:11;-2.20;99.90
6841;DHT22;3458;53.678;14.080;2023-02-28T06:38:38;-2.20;99.90
6841;DHT22;3458;53.678;14.080;2023-02-28T06:41:04;-2.20;99.90
6841;DHT22;3458;53.678;14.080;2023-02-28T06:43:33;-2.20;99.90
6841;DHT22;3458;53.678;14.080;2023-02-28T06:46:00;-2.20;99.90
6841;DHT22;3458;53.678;14.080;2023-02-28T06:48:26;-2.20;99.90
6841;DHT22;3458;53.678;14.080;2023-02-28T06:50:52;-2.20;99.90
6841;DHT22;3458;53.678;14.080;2023-02-28T06:53:18;-2.10;99.90
6841;DHT22;3458;53.678;14.080;2023-02-28T06:55:43;-2.10;99.90
6841;DHT22;3458;53.678;14.080;2023-02-28T06:58:09;-2.10;99.90
6841;DHT22;3458;53.678;14.080;2023-02-28T07:00:44;-2.00;99.90
6841;DHT22;3458;53.678;14.080;2023-02-28T07:03:11;-2.00;99.90
6841;DHT22;3458;53.678;14.080;2023-02-28T07:05:39;-2.00;99.90
6841;DHT22;3458;53.678;14.080;2023-02-28T07:08:05;-2.00;99.90
6841;DHT22;3458;53.678;14.080;2023-02-28T07:10:32;-1.90;99.90
6841;DHT22;3458;53.678;14.080;2023-02-28T07:12:58;-1.90;99.90
6841;DHT22;3458;53.678;14.080;2023-02-28T07:15:24;-1.90;99.90
6841;DHT22;3458;53.678;14.080;2023-02-28T07:17:49;-1.80;99.90
6841;DHT22;3458;53.678;14.080;2023-02-28T07:20:15;-1.80;99.90
6841;DHT22;3458;53.678;14.080;2023-02-28T07:22:41;-1.80;99.90
6841;DHT22;3458;53.678;14.080;2023-02-28T07:25:07;-1.70;99.90
6841;DHT22;3458;53.678;14.080;2023-02-28T07:27:33;-1.60;99.90
6841;DHT22;3458;53.678;14.080;2023-02-28T07:29:59;-1.50;99.90
6841;DHT22;3458;53.678;14.080;2023-02-28T07:32:27;-1.40;99.90
6841;DHT22;3458;53.678;14.080;2023-02-28T07:34:52;-1.30;99.90
6841;DHT22;3458;53.678;14.080;2023-02-28T07:37:18;-1.20;99.90
6841;DHT22;3458;53.678;14.080;2023-02-28T07:39:43;-1.10;99.90
6841;DHT22;3458;53.678;14.080;2023-02-28T07:42:09;-1.00;99.90
6841;DHT22;3458;53.678;14.080;2023-02-28T07:44:38;-1.00;99.90
6841;DHT22;3458;53.678;14.080;2023-02-28T07:47:07;-0.90;99.90
6841;DHT22;3458;53.678;14.080;2023-02-28T07:49:35;-0.80;99.90
6841;DHT22;3458;53.678;14.080;2023-02-28T07:52:00;-0.70;99.90
6841;DHT22;3458;53.678;14.080;2023-02-28T07:54:26;-0.60;99.90
6841;DHT22;3458;53.678;14.080;2023-02-28T07:56:51;-0.50;99.90
6841;DHT22;3458;53.678;14.080;2023-02-28T07:59:17;-0.50;99.90
6841;DHT22;3458;53.678;14.080;2023-02-28T08:01:42;-0.50;99.90
6841;DHT22;3458;53.678;14.080;2023-02-28T08:04:10;-0.40;99.90
6841;DHT22;3458;53.678;14.080;2023-02-28T08:06:35;-0.40;99.90
6841;DHT22;3458;53.678;14.080;2023-02-28T08:09:01;-0.20;99.90
6841;DHT22;3458;53.678;14.080;2023-02-28T08:11:26;-0.10;99.90
6841;DHT22;3458;53.678;14.080;2023-02-28T08:13:52;0.00;99.90
6841;DHT22;3458;53.678;14.080;2023-02-28T08:16:17;0.10;99.90
6841;DHT22;3458;53.678;14.080;2023-02-28T08:18:51;0.20;99.90
6841;DHT22;3458;53.678;14.080;2023-02-28T08:21:17;0.30;99.90
6841;DHT22;3458;53.678;14.080;2023-02-28T08:23:42;0.40;99.90
6841;DHT22;3458;53.678;14.080;2023-02-28T08:26:08;0.50;99.90
6841;DHT22;3458;53.678;14.080;2023-02-28T08:28:33;0.60;99.90
6841;DHT22;3458;53.678;14.080;2023-02-28T08:30:59;0.70;99.90
6841;DHT22;3458;53.678;14.080;2023-02-28T08:33:26;0.80;99.90
6841;DHT22;3458;53.678;14.080;2023-02-28T08:35:56;0.90;99.90
6841;DHT22;3458;53.678;14.080;2023-02-28T08:38:22;1.00;99.90
6841;DHT22;3458;53.678;14.080;2023-02-28T08:40:47;1.20;99.90
6841;DHT22;3458;53.678;14.080;2023-02-28T08:43:13;1.40;99.90
6841;DHT22;3458;53.678;14.080;2023-02-28T08:45:39;1.50;99.90
6841;DHT22;3458;53.678;14.080;2023-02-28T08:48:04;1.60;99.90
6841;DHT22;3458;53.678;14.080;2023-02-28T08:50:30;1.70;99.90
6841;DHT22;3458;53.678;14.080;2023-02-28T08:52:55;1.60;99.90
6841;DHT22;3458;53.678;14.080;2023-02-28T08:55:22;1.70;99.90
6841;DHT22;3458;53.678;14.080;2023-02-28T08:57:47;1.80;99.90
6841;DHT22;3458;53.678;14.080;2023-02-28T09:00:13;1.90;99.90
6841;DHT22;3458;53.678;14.080;2023-02-28T09:02:39;2.10;99.90
6841;DHT22;3458;53.678;14.080;2023-02-28T09:05:05;2.20;99.90
6841;DHT22;3458;53.678;14.080;2023-02-28T09:07:31;2.40;99.90
6841;DHT22;3458;53.678;14.080;2023-02-28T09:09:56;2.60;99.90
6841;DHT22;3458;53.678;14.080;2023-02-28T09:12:27;2.70;99.90
6841;DHT22;3458;53.678;14.080;2023-02-28T09:14:53;2.70;99.90
6841;DHT22;3458;53.678;14.080;2023-02-28T09:17:19;2.80;99.90
6841;DHT22;3458;53.678;14.080;2023-02-28T09:19:49;3.00;99.90
6841;DHT22;3458;53.678;14.080;2023-02-28T09:22:14;3.20;99.90
6841;DHT22;3458;53.678;14.080;2023-02-28T09:24:40;3.30;99.90
6841;DHT22;3458;53.678;14.080;2023-02-28T09:27:06;3.40;99.90
6841;DHT22;3458;53.678;14.080;2023-02-28T09:29:32;3.50;99.90
6841;DHT22;3458;53.678;14.080;2023-02-28T09:31:59;3.70;99.90
6841;DHT22;3458;53.678;14.080;2023-02-28T09:34:26;3.70;99.90
6841;DHT22;3458;53.678;14.080;2023-02-28T09:36:51;3.80;99.90
6841;DHT22;3458;53.678;14.080;2023-02-28T09:39:21;4.10;99.90
6841;DHT22;3458;53.678;14.080;2023-02-28T09:41:48;4.30;99.90
6841;DHT22;3458;53.678;14.080;2023-02-28T09:44:38;4.50;99.90
6841;DHT22;3458;53.678;14.080;2023-02-28T09:47:13;4.60;99.90
6841;DHT22;3458;53.678;14.080;2023-02-28T09:49:46;4.70;99.90
6841;DHT22;3458;53.678;14.080;2023-02-28T09:52:17;4.70;99.90
6841;DHT22;3458;53.678;14.080;2023-02-28T09:54:44;4.80;99.90
6841;DHT22;3458;53.678;14.080;2023-02-28T09:57:33;4.90;99.90
6841;DHT22;3458;53.678;14.080;2023-02-28T10:00:25;4.90;99.90
6841;DHT22;3458;53.678;14.080;2023-02-28T10:03:19;5.10;99.90
6841;DHT22;3458;53.678;14.080;2023-02-28T10:05:53;5.20;99.90
6841;DHT22;3458;53.678;14.080;2023-02-28T10:08:31;5.20;99.90
6841;DHT22;3458;53.678;14.080;2023-02-28T10:11:01;5.30;99.90
6841;DHT22;3458;53.678;14.080;2023-02-28T10:13:52;5.40;99.90
6841;DHT22;3458;53.678;14.080;2023-02-28T10:16:27;5.50;99.90
6841;DHT22;3458;53.678;14.080;2023-02-28T10:18:59;5.60;99.90
6841;DHT22;3458;53.678;14.080;2023-02-28T10:21:42;5.80;99.90
6841;DHT22;3458;53.678;14.080;2023-02-28T10:24:30;6.00;99.90
6841;DHT22;3458;53.678;14.080;2023-02-28T10:27:14;6.00;99.90
6841;DHT22;3458;53.678;14.080;2023-02-28T10:29:44;6.20;99.90
6841;DHT22;3458;53.678;14.080;2023-02-28T10:32:17;6.20;98.40
6841;DHT22;3458;53.678;14.080;2023-02-28T10:34:43;6.40;98.60
6841;DHT22;3458;53.678;14.080;2023-02-28T10:37:11;6.40;98.40
6841;DHT22;3458;53.678;14.080;2023-02-28T10:39:45;6.50;99.10
6841;DHT22;3458;53.678;14.080;2023-02-28T10:42:28;6.60;99.70
6841;DHT22;3458;53.678;14.080;2023-02-28T10:47:32;6.60;97.60
6841;DHT22;3458;53.678;14.080;2023-02-28T10:49:58;6.70;98.10
6841;DHT22;3458;53.678;14.080;2023-02-28T10:52:37;6.80;95.50
6841;DHT22;3458;53.678;14.080;2023-02-28T10:55:21;7.00;96.00
6841;DHT22;3458;53.678;14.080;2023-02-28T10:57:48;7.30;95.10
6841;DHT22;3458;53.678;14.080;2023-02-28T11:00:20;7.40;94.90
6841;DHT22;3458;53.678;14.080;2023-02-28T11:02:47;7.50;94.40
6841;DHT22;3458;53.678;14.080;2023-02-28T11:05:26;7.70;93.50
6841;DHT22;3458;53.678;14.080;2023-02-28T11:07:54;7.80;92.20
6841;DHT22;3458;53.678;14.080;2023-02-28T11:10:21;8.00;92.60
6841;DHT22;3458;53.678;14.080;2023-02-28T11:12:49;8.00;91.90
6841;DHT22;3458;53.678;14.080;2023-02-28T11:17:57;7.70;90.30
6841;DHT22;3458;53.678;14.080;2023-02-28T11:20:26;7.60;90.30
6841;DHT22;3458;53.678;14.080;2023-02-28T11:22:54;7.70;90.70
6841;DHT22;3458;53.678;14.080;2023-02-28T11:25:32;7.80;89.80
6841;DHT22;3458;53.678;14.080;2023-02-28T11:28:03;7.70;87.60
6841;DHT22;3458;53.678;14.080;2023-02-28T11:30:41;7.70;88.20
6841;DHT22;3458;53.678;14.080;2023-02-28T11:33:28;7.70;88.70
6841;DHT22;3458;53.678;14.080;2023-02-28T11:35:58;7.90;88.60
6841;DHT22;3458;53.678;14.080;2023-02-28T11:38:25;8.00;90.40
6841;DHT22;3458;53.678;14.080;2023-02-28T11:46:44;8.20;85.70
6841;DHT22;3458;53.678;14.080;2023-02-28T11:49:30;8.30;84.30
6841;DHT22;3458;53.678;14.080;2023-02-28T11:52:02;8.30;83.60
6841;DHT22;3458;53.678;14.080;2023-02-28T11:54:55;8.50;84.00
6841;DHT22;3458;53.678;14.080;2023-02-28T11:57:56;8.70;85.40
6841;DHT22;3458;53.678;14.080;2023-02-28T12:00:40;9.20;84.60
6841;DHT22;3458;53.678;14.080;2023-02-28T12:06:20;9.20;79.50
6841;DHT22;3458;53.678;14.080;2023-02-28T12:09:04;9.10;78.60
6841;DHT22;3458;53.678;14.080;2023-02-28T12:14:41;9.20;77.30
6841;DHT22;3458;53.678;14.080;2023-02-28T12:17:30;9.50;77.90
6841;DHT22;3458;53.678;14.080;2023-02-28T12:20:33;9.20;73.30
6841;DHT22;3458;53.678;14.080;2023-02-28T12:26:16;8.90;77.10
6841;DHT22;3458;53.678;14.080;2023-02-28T12:28:54;8.90;77.70
6841;DHT22;3458;53.678;14.080;2023-02-28T12:31:34;8.70;75.00
6841;DHT22;3458;53.678;14.080;2023-02-28T12:34:04;8.60;75.20
6841;DHT22;3458;53.678;14.080;2023-02-28T12:36:32;8.80;76.00
6841;DHT22;3458;53.678;14.080;2023-02-28T12:41:54;9.20;74.80
6841;DHT22;3458;53.678;14.080;2023-02-28T12:44:33;9.10;70.20
6841;DHT22;3458;53.678;14.080;2023-02-28T12:47:08;9.00;71.50
6841;DHT22;3458;53.678;14.080;2023-02-28T12:49:42;9.00;71.70
6841;DHT22;3458;53.678;14.080;2023-02-28T12:52:13;9.10;71.10
6841;DHT22;3458;53.678;14.080;2023-02-28T12:54:51;9.30;71.60
6841;DHT22;3458;53.678;14.080;2023-02-28T12:57:25;9.70;71.60
6841;DHT22;3458;53.678;14.080;2023-02-28T13:00:00;10.10;69.00
6841;DHT22;3458;53.678;14.080;2023-02-28T13:05:44;10.90;65.30
6841;DHT22;3458;53.678;14.080;2023-02-28T13:08:08;11.10;62.70
6841;DHT22;3458;53.678;14.080;2023-02-28T13:10:45;11.40;62.40
6841;DHT22;3458;53.678;14.080;2023-02-28T13:13:19;11.80;62.90
6841;DHT22;3458;53.678;14.080;2023-02-28T13:16:09;12.30;63.10
6841;DHT22;3458;53.678;14.080;2023-02-28T13:18:43;12.90;63.20
6841;DHT22;3458;53.678;14.080;2023-02-28T13:21:26;13.20;59.20
6841;DHT22;3458;53.678;14.080;2023-02-28T13:29:21;13.00;55.20
6841;DHT22;3458;53.678;14.080;2023-02-28T13:34:40;13.80;56.20
6841;DHT22;3458;53.678;14.080;2023-02-28T13:39:48;14.30;54.50
6841;DHT22;3458;53.678;14.080;2023-02-28T13:42:36;14.10;53.50
6841;DHT22;3458;53.678;14.080;2023-02-28T13:47:42;14.20;53.00
6841;DHT22;3458;53.678;14.080;2023-02-28T13:55:34;14.60;55.40
6841;DHT22;3458;53.678;14.080;2023-02-28T13:58:27;14.70;56.30
6841;DHT22;3458;53.678;14.080;2023-02-28T14:06:52;14.60;54.50
6841;DHT22;3458;53.678;14.080;2023-02-28T14:11:56;14.60;53.80
6841;DHT22;3458;53.678;14.080;2023-02-28T14:17:12;14.80;52.80
6841;DHT22;3458;53.678;14.080;2023-02-28T14:19:39;14.60;52.80
6841;DHT22;3458;53.678;14.080;2023-02-28T14:25:20;14.70;53.00
6841;DHT22;3458;53.678;14.080;2023-02-28T14:27:54;14.50;53.10
6841;DHT22;3458;53.678;14.080;2023-02-28T14:30:51;14.70;53.00
6841;DHT22;3458;53.678;14.080;2023-02-28T14:33:32;14.90;52.00
6841;DHT22;3458;53.678;14.080;2023-02-28T14:36:10;14.80;51.20
6841;DHT22;3458;53.678;14.080;2023-02-28T14:38:52;14.90;51.00
6841;DHT22;3458;53.678;14.080;2023-02-28T14:41:24;15.00;50.90
6841;DHT22;3458;53.678;14.080;2023-02-28T14:43:58;15.10;50.70
6841;DHT22;3458;53.678;14.080;2023-02-28T14:46:34;15.40;50.80
6841;DHT22;3458;53.678;14.080;2023-02-28T14:49:01;15.30;49.80
6841;DHT22;3458;53.678;14.080;2023-02-28T14:51:26;15.20;49.10
6841;DHT22;3458;53.678;14.080;2023-02-28T14:53:58;15.20;48.50
6841;DHT22;3458;53.678;14.080;2023-02-28T14:56:30;15.20;48.70
6841;DHT22;3458;53.678;14.080;2023-02-28T14:58:58;15.40;48.70
6841;DHT22;3458;53.678;14.080;2023-02-28T15:01:25;15.50;48.50
6841;DHT22;3458;53.678;14.080;2023-02-28T15:04:00;15.60;47.90
6841;DHT22;3458;53.678;14.080;2023-02-28T15:06:26;15.60;46.80
6841;DHT22;3458;53.678;14.080;2023-02-28T15:09:27;15.60;47.00
6841;DHT22;3458;53.678;14.080;2023-02-28T15:11:54;15.80;46.70
6841;DHT22;3458;53.678;14.080;2023-02-28T15:14:21;15.90;46.60
6841;DHT22;3458;53.678;14.080;2023-02-28T15:16:58;15.80;46.00
6841;DHT22;3458;53.678;14.080;2023-02-28T15:19:30;16.00;46.20
6841;DHT22;3458;53.678;14.080;2023-02-28T15:22:02;16.10;45.80
6841;DHT22;3458;53.678;14.080;2023-02-28T15:24:39;16.20;45.70
6841;DHT22;3458;53.678;14.080;2023-02-28T15:27:13;16.40;45.20
6841;DHT22;3458;53.678;14.080;2023-02-28T15:29:51;16.30;44.20
6841;DHT22;3458;53.678;14.080;2023-02-28T15:32:30;16.40;43.60
6841;DHT22;3458;53.678;14.080;2023-02-28T15:34:57;16.70;44.00
6841;DHT22;3458;53.678;14.080;2023-02-28T15:40:49;15.30;44.50
6841;DHT22;3458;53.678;14.080;2023-02-28T15:43:18;14.30;46.10
6841;DHT22;3458;53.678;14.080;2023-02-28T15:46:20;13.10;47.10
6841;DHT22;3458;53.678;14.080;2023-02-28T15:48:53;12.20;47.90
6841;DHT22;3458;53.678;14.080;2023-02-28T15:51:36;11.60;48.70
6841;DHT22;3458;53.678;14.080;2023-02-28T15:54:06;10.90;49.50
6841;DHT22;3458;53.678;14.080;2023-02-28T15:56:44;10.50;50.40
6841;DHT22;3458;53.678;14.080;2023-02-28T15:59:20;10.20;51.30
6841;DHT22;3458;53.678;14.080;2023-02-28T16:01:45;9.80;52.80
6841;DHT22;3458;53.678;14.080;2023-02-28T16:04:17;9.50;53.20
6841;DHT22;3458;53.678;14.080;2023-02-28T16:09:24;9.00;54.20
6841;DHT22;3458;53.678;14.080;2023-02-28T16:11:54;8.70;54.70
6841;DHT22;3458;53.678;14.080;2023-02-28T16:14:25;8.50;55.40
6841;DHT22;3458;53.678;14.080;2023-02-28T16:17:06;8.40;56.10
6841;DHT22;3458;53.678;14.080;2023-02-28T16:19:32;8.30;56.50
6841;DHT22;3458;53.678;14.080;2023-02-28T16:21:57;8.10;56.70
6841;DHT22;3458;53.678;14.080;2023-02-28T16:24:23;8.00;56.80
6841;DHT22;3458;53.678;14.080;2023-02-28T16:26:50;7.90;57.30
6841;DHT22;3458;53.678;14.080;2023-02-28T16:29:24;7.80;58.80
6841;DHT22;3458;53.678;14.080;2023-02-28T16:31:51;7.60;58.80
6841;DHT22;3458;53.678;14.080;2023-02-28T16:34:19;7.50;59.60
6841;DHT22;3458;53.678;14.080;2023-02-28T16:36:47;7.40;60.10
6841;DHT22;3458;53.678;14.080;2023-02-28T16:39:13;7.20;60.80
6841;DHT22;3458;53.678;14.080;2023-02-28T16:41:42;7.20;61.10
6841;DHT22;3458;53.678;14.080;2023-02-28T16:44:12;7.00;61.70
6841;DHT22;3458;53.678;14.080;2023-02-28T16:46:38;6.90;62.40
6841;DHT22;3458;53.678;14.080;2023-02-28T16:49:04;6.80;63.10
6841;DHT22;3458;53.678;14.080;2023-02-28T16:51:30;6.60;63.70
6841;DHT22;3458;53.678;14.080;2023-02-28T16:53:55;6.60;64.50
6841;DHT22;3458;53.678;14.080;2023-02-28T16:56:23;6.40;65.10
6841;DHT22;3458;53.678;14.080;2023-02-28T16:58:49;6.40;66.50
6841;DHT22;3458;53.678;14.080;2023-02-28T17:01:16;6.30;66.20
6841;DHT22;3458;53.678;14.080;2023-02-28T17:03:42;6.20;66.50
6841;DHT22;3458;53.678;14.080;2023-02-28T17:06:20;6.20;67.00
6841;DHT22;3458;53.678;14.080;2023-02-28T17:08:50;6.00;67.20
6841;DHT22;3458;53.678;14.080;2023-02-28T17:11:16;5.90;67.50
6841;DHT22;3458;53.678;14.080;2023-02-28T17:13:42;5.80;67.70
6841;DHT22;3458;53.678;14.080;2023-02-28T17:16:20;5.70;68.10
6841;DHT22;3458;53.678;14.080;2023-02-28T17:18:47;5.60;68.70
6841;DHT22;3458;53.678;14.080;2023-02-28T17:21:14;5.50;69.40
6841;DHT22;3458;53.678;14.080;2023-02-28T17:23:40;5.40;70.00
6841;DHT22;3458;53.678;14.080;2023-02-28T17:26:06;5.30;70.00
6841;DHT22;3458;53.678;14.080;2023-02-28T17:28:32;5.30;70.10
6841;DHT22;3458;53.678;14.080;2023-02-28T17:30:58;5.20;70.30
6841;DHT22;3458;53.678;14.080;2023-02-28T17:33:23;5.20;70.70
6841;DHT22;3458;53.678;14.080;2023-02-28T17:35:49;5.10;71.00
6841;DHT22;3458;53.678;14.080;2023-02-28T17:38:19;5.00;71.70
6841;DHT22;3458;53.678;14.080;2023-02-28T17:40:45;5.00;72.10